Pagrindinis puslapis
METAR-TAF:

METAR-TAF

Oro uostai :

Lokarnas, Šveicarija

platuma: 46-09-55N, ilguma: 8-52-40E, Aukštis: 198 m

Dabartinis oras

Ataskaita buvo paskelbta 27 minutes, ne 02:50 UTC
Ramus vėjas
Temperatūra 4°C
Drėgmė 87%
Slėgis 1022 hPa
Matomumas 10 km arba daugiau
Išsisklaidę debesys ne aukštis 11000 ft

METAR: LSZL 180250Z AUTO 00000KT 9999NDV SCT110 04/02 Q1022 RMK

Laikas: 04:17 (03:17 UTC)

Prognozė

Ataskaita buvo paskelbta 9 valandos ir 52 minutes, ne 17:25 UTC
Prognozė galioja nuo 17 metu 18 UTC su 18 metu 03 UTC
Vėjas 3 kt nuo kintamojo kryptimis
Matomumas 10 km arba daugiau
Apsiniaukę ne aukštis 8500 ft

TAF: LSZL 171725Z 1718/1803 VRB03KT 9999 OVC085

Orai ataskaitas ir orų prognozės (METAR, TAF).

turimą stotys yra geltonos ir raudonos taškus žemėlapyje.

Perkelti pele per norėdami pamatyti stoties vardą.

Tada spustelėkite, norėdami matyti oro stebėjimo ir prognozės.

Norėdami pakeisti žemėlapį: spustelėkite ant žalios mygtukų su juodo kryžiaus žemyn,; žalią mygtuką su brūkšneliu, jei norite nutolinti; arba žalių rodyklių gretimoms žemėlapius.


METAR-TAF: